sensor_id;sensor_type;location;lat;lon;timestamp;P1;durP1;ratioP1;P2;durP2;ratioP2
11568;SDS011;5840;46.894;15.542;2022-11-20T00:00:32;29.17;;;23.80;;
11568;SDS011;5840;46.894;15.542;2022-11-20T00:03:02;27.30;;;22.07;;
11568;SDS011;5840;46.894;15.542;2022-11-20T00:05:32;28.10;;;22.43;;
11568;SDS011;5840;46.894;15.542;2022-11-20T00:08:01;24.70;;;20.93;;
11568;SDS011;5840;46.894;15.542;2022-11-20T00:10:32;25.47;;;21.03;;
11568;SDS011;5840;46.894;15.542;2022-11-20T00:13:03;25.33;;;20.30;;
11568;SDS011;5840;46.894;15.542;2022-11-20T00:15:31;23.60;;;19.87;;
11568;SDS011;5840;46.894;15.542;2022-11-20T00:17:59;25.43;;;20.93;;
11568;SDS011;5840;46.894;15.542;2022-11-20T00:20:27;23.97;;;20.23;;
11568;SDS011;5840;46.894;15.542;2022-11-20T00:22:56;24.77;;;20.40;;
11568;SDS011;5840;46.894;15.542;2022-11-20T00:25:27;25.87;;;21.43;;
11568;SDS011;5840;46.894;15.542;2022-11-20T00:27:58;28.10;;;21.97;;
11568;SDS011;5840;46.894;15.542;2022-11-20T00:30:28;28.57;;;23.57;;
11568;SDS011;5840;46.894;15.542;2022-11-20T00:32:56;30.27;;;23.87;;
11568;SDS011;5840;46.894;15.542;2022-11-20T00:35:25;30.53;;;23.40;;
11568;SDS011;5840;46.894;15.542;2022-11-20T00:37:54;29.33;;;23.10;;
11568;SDS011;5840;46.894;15.542;2022-11-20T00:40:24;29.87;;;22.60;;
11568;SDS011;5840;46.894;15.542;2022-11-20T00:42:53;26.23;;;21.37;;
11568;SDS011;5840;46.894;15.542;2022-11-20T00:45:23;27.93;;;21.63;;
11568;SDS011;5840;46.894;15.542;2022-11-20T00:47:51;25.43;;;20.93;;
11568;SDS011;5840;46.894;15.542;2022-11-20T00:50:19;26.07;;;21.07;;
11568;SDS011;5840;46.894;15.542;2022-11-20T00:52:48;25.47;;;20.57;;
11568;SDS011;5840;46.894;15.542;2022-11-20T00:55:16;27.83;;;21.80;;
11568;SDS011;5840;46.894;15.542;2022-11-20T00:57:46;27.93;;;21.97;;
11568;SDS011;5840;46.894;15.542;2022-11-20T01:00:14;26.37;;;21.03;;
11568;SDS011;5840;46.894;15.542;2022-11-20T01:02:44;26.33;;;21.97;;
11568;SDS011;5840;46.894;15.542;2022-11-20T01:05:14;27.50;;;21.80;;
11568;SDS011;5840;46.894;15.542;2022-11-20T01:07:42;28.10;;;22.03;;
11568;SDS011;5840;46.894;15.542;2022-11-20T01:10:11;29.17;;;22.97;;
11568;SDS011;5840;46.894;15.542;2022-11-20T01:12:40;26.90;;;22.80;;
11568;SDS011;5840;46.894;15.542;2022-11-20T01:15:31;26.07;;;22.33;;
11568;SDS011;5840;46.894;15.542;2022-11-20T01:18:08;28.93;;;23.17;;
11568;SDS011;5840;46.894;15.542;2022-11-20T01:20:38;24.90;;;21.23;;
11568;SDS011;5840;46.894;15.542;2022-11-20T01:23:07;28.70;;;22.57;;
11568;SDS011;5840;46.894;15.542;2022-11-20T01:25:36;24.80;;;21.17;;
11568;SDS011;5840;46.894;15.542;2022-11-20T01:28:04;26.20;;;21.53;;
11568;SDS011;5840;46.894;15.542;2022-11-20T01:30:33;24.40;;;20.40;;
11568;SDS011;5840;46.894;15.542;2022-11-20T01:33:04;24.13;;;20.70;;
11568;SDS011;5840;46.894;15.542;2022-11-20T01:35:35;25.87;;;21.23;;
11568;SDS011;5840;46.894;15.542;2022-11-20T01:38:05;25.23;;;20.93;;
11568;SDS011;5840;46.894;15.542;2022-11-20T01:40:34;24.03;;;20.07;;
11568;SDS011;5840;46.894;15.542;2022-11-20T01:43:09;25.00;;;21.50;;
11568;SDS011;5840;46.894;15.542;2022-11-20T01:45:59;27.30;;;23.07;;
11568;SDS011;5840;46.894;15.542;2022-11-20T01:48:49;28.27;;;23.57;;
11568;SDS011;5840;46.894;15.542;2022-11-20T01:51:25;28.47;;;23.10;;
11568;SDS011;5840;46.894;15.542;2022-11-20T01:53:57;29.10;;;21.97;;
11568;SDS011;5840;46.894;15.542;2022-11-20T01:56:30;26.27;;;22.13;;
11568;SDS011;5840;46.894;15.542;2022-11-20T01:59:05;28.20;;;22.57;;
11568;SDS011;5840;46.894;15.542;2022-11-20T02:01:35;25.87;;;21.37;;
11568;SDS011;5840;46.894;15.542;2022-11-20T02:04:04;25.63;;;21.13;;
11568;SDS011;5840;46.894;15.542;2022-11-20T02:06:36;25.70;;;21.37;;
11568;SDS011;5840;46.894;15.542;2022-11-20T02:09:09;23.90;;;20.07;;
11568;SDS011;5840;46.894;15.542;2022-11-20T02:11:42;28.27;;;22.27;;
11568;SDS011;5840;46.894;15.542;2022-11-20T02:14:11;24.40;;;20.67;;
11568;SDS011;5840;46.894;15.542;2022-11-20T02:16:40;27.73;;;21.50;;
11568;SDS011;5840;46.894;15.542;2022-11-20T02:19:16;26.77;;;21.67;;
11568;SDS011;5840;46.894;15.542;2022-11-20T02:21:52;29.87;;;24.10;;
11568;SDS011;5840;46.894;15.542;2022-11-20T02:24:29;26.27;;;22.43;;
11568;SDS011;5840;46.894;15.542;2022-11-20T02:26:59;26.97;;;21.97;;
11568;SDS011;5840;46.894;15.542;2022-11-20T02:29:31;29.53;;;22.83;;
11568;SDS011;5840;46.894;15.542;2022-11-20T02:32:03;24.30;;;21.60;;
11568;SDS011;5840;46.894;15.542;2022-11-20T02:34:32;27.10;;;22.00;;
11568;SDS011;5840;46.894;15.542;2022-11-20T02:37:00;28.23;;;23.43;;
11568;SDS011;5840;46.894;15.542;2022-11-20T02:39:31;29.33;;;23.53;;
11568;SDS011;5840;46.894;15.542;2022-11-20T02:42:02;28.83;;;23.40;;
11568;SDS011;5840;46.894;15.542;2022-11-20T02:44:30;26.30;;;22.07;;
11568;SDS011;5840;46.894;15.542;2022-11-20T02:46:59;24.30;;;20.23;;
11568;SDS011;5840;46.894;15.542;2022-11-20T02:49:28;27.07;;;21.63;;
11568;SDS011;5840;46.894;15.542;2022-11-20T02:51:56;29.63;;;23.17;;
11568;SDS011;5840;46.894;15.542;2022-11-20T02:54:27;26.23;;;21.50;;
11568;SDS011;5840;46.894;15.542;2022-11-20T02:56:58;26.60;;;21.23;;
11568;SDS011;5840;46.894;15.542;2022-11-20T02:59:27;26.30;;;22.33;;
11568;SDS011;5840;46.894;15.542;2022-11-20T03:02:00;27.07;;;21.00;;
11568;SDS011;5840;46.894;15.542;2022-11-20T03:04:28;26.73;;;20.80;;
11568;SDS011;5840;46.894;15.542;2022-11-20T03:06:58;23.57;;;19.57;;
11568;SDS011;5840;46.894;15.542;2022-11-20T03:09:27;25.10;;;20.63;;
11568;SDS011;5840;46.894;15.542;2022-11-20T03:11:58;26.37;;;21.20;;
11568;SDS011;5840;46.894;15.542;2022-11-20T03:14:26;25.73;;;21.97;;
11568;SDS011;5840;46.894;15.542;2022-11-20T03:16:55;24.27;;;20.93;;
11568;SDS011;5840;46.894;15.542;2022-11-20T03:19:23;25.50;;;20.83;;
11568;SDS011;5840;46.894;15.542;2022-11-20T03:21:51;26.13;;;21.23;;
11568;SDS011;5840;46.894;15.542;2022-11-20T03:24:19;26.03;;;21.03;;
11568;SDS011;5840;46.894;15.542;2022-11-20T03:26:48;22.30;;;19.93;;
11568;SDS011;5840;46.894;15.542;2022-11-20T03:29:18;21.33;;;19.03;;
11568;SDS011;5840;46.894;15.542;2022-11-20T03:31:46;26.63;;;20.00;;
11568;SDS011;5840;46.894;15.542;2022-11-20T03:34:14;21.27;;;18.90;;
11568;SDS011;5840;46.894;15.542;2022-11-20T03:36:43;24.37;;;20.07;;
11568;SDS011;5840;46.894;15.542;2022-11-20T03:39:13;19.30;;;17.23;;
11568;SDS011;5840;46.894;15.542;2022-11-20T03:41:43;20.43;;;17.73;;
11568;SDS011;5840;46.894;15.542;2022-11-20T03:44:14;19.53;;;17.33;;
11568;SDS011;5840;46.894;15.542;2022-11-20T03:46:46;19.40;;;17.30;;
11568;SDS011;5840;46.894;15.542;2022-11-20T03:49:14;20.57;;;18.27;;
11568;SDS011;5840;46.894;15.542;2022-11-20T03:51:42;19.93;;;16.50;;
11568;SDS011;5840;46.894;15.542;2022-11-20T03:54:11;19.97;;;17.33;;
11568;SDS011;5840;46.894;15.542;2022-11-20T03:56:40;21.03;;;17.40;;
11568;SDS011;5840;46.894;15.542;2022-11-20T03:59:09;18.17;;;16.20;;
11568;SDS011;5840;46.894;15.542;2022-11-20T04:01:38;22.60;;;18.90;;
11568;SDS011;5840;46.894;15.542;2022-11-20T04:04:09;18.93;;;16.83;;
11568;SDS011;5840;46.894;15.542;2022-11-20T04:06:38;18.83;;;16.80;;
11568;SDS011;5840;46.894;15.542;2022-11-20T04:09:11;19.00;;;17.00;;
11568;SDS011;5840;46.894;15.542;2022-11-20T04:11:41;18.60;;;16.43;;
11568;SDS011;5840;46.894;15.542;2022-11-20T04:14:11;18.73;;;15.67;;
11568;SDS011;5840;46.894;15.542;2022-11-20T04:16:43;19.07;;;16.13;;
11568;SDS011;5840;46.894;15.542;2022-11-20T04:19:14;18.27;;;16.10;;
11568;SDS011;5840;46.894;15.542;2022-11-20T04:21:44;20.03;;;16.53;;
11568;SDS011;5840;46.894;15.542;2022-11-20T04:24:12;16.43;;;14.73;;
11568;SDS011;5840;46.894;15.542;2022-11-20T04:26:41;18.27;;;16.10;;
11568;SDS011;5840;46.894;15.542;2022-11-20T04:29:10;16.87;;;15.07;;
11568;SDS011;5840;46.894;15.542;2022-11-20T04:31:39;19.80;;;17.17;;
11568;SDS011;5840;46.894;15.542;2022-11-20T04:34:10;16.97;;;15.07;;
11568;SDS011;5840;46.894;15.542;2022-11-20T04:36:40;15.23;;;13.67;;
11568;SDS011;5840;46.894;15.542;2022-11-20T04:39:14;17.53;;;15.73;;
11568;SDS011;5840;46.894;15.542;2022-11-20T04:41:43;18.00;;;16.00;;
11568;SDS011;5840;46.894;15.542;2022-11-20T04:44:36;17.67;;;15.83;;
11568;SDS011;5840;46.894;15.542;2022-11-20T04:47:04;16.63;;;14.37;;
11568;SDS011;5840;46.894;15.542;2022-11-20T04:49:35;16.40;;;14.70;;
11568;SDS011;5840;46.894;15.542;2022-11-20T04:52:03;16.60;;;14.27;;
11568;SDS011;5840;46.894;15.542;2022-11-20T04:54:32;16.30;;;14.63;;
11568;SDS011;5840;46.894;15.542;2022-11-20T04:57:02;15.30;;;13.20;;
11568;SDS011;5840;46.894;15.542;2022-11-20T04:59:30;16.13;;;13.73;;
11568;SDS011;5840;46.894;15.542;2022-11-20T05:02:00;16.03;;;14.33;;
11568;SDS011;5840;46.894;15.542;2022-11-20T05:04:31;14.93;;;13.43;;
11568;SDS011;5840;46.894;15.542;2022-11-20T05:07:03;14.97;;;13.37;;
11568;SDS011;5840;46.894;15.542;2022-11-20T05:09:34;14.03;;;12.53;;
11568;SDS011;5840;46.894;15.542;2022-11-20T05:12:06;14.13;;;12.60;;
11568;SDS011;5840;46.894;15.542;2022-11-20T05:14:35;14.47;;;12.97;;
11568;SDS011;5840;46.894;15.542;2022-11-20T05:17:09;15.07;;;13.43;;
11568;SDS011;5840;46.894;15.542;2022-11-20T05:19:38;21.27;;;15.00;;
11568;SDS011;5840;46.894;15.542;2022-11-20T05:22:09;16.47;;;14.67;;
11568;SDS011;5840;46.894;15.542;2022-11-20T05:24:39;22.40;;;19.37;;
11568;SDS011;5840;46.894;15.542;2022-11-20T05:27:07;20.93;;;18.67;;
11568;SDS011;5840;46.894;15.542;2022-11-20T05:29:38;20.70;;;18.53;;
11568;SDS011;5840;46.894;15.542;2022-11-20T05:32:09;21.97;;;18.87;;
11568;SDS011;5840;46.894;15.542;2022-11-20T05:34:43;20.47;;;18.27;;
11568;SDS011;5840;46.894;15.542;2022-11-20T05:37:19;19.30;;;17.23;;
11568;SDS011;5840;46.894;15.542;2022-11-20T05:39:45;20.07;;;17.87;;
11568;SDS011;5840;46.894;15.542;2022-11-20T05:42:12;20.73;;;17.57;;
11568;SDS011;5840;46.894;15.542;2022-11-20T05:44:58;18.70;;;16.70;;
11568;SDS011;5840;46.894;15.542;2022-11-20T05:47:25;18.17;;;15.83;;
11568;SDS011;5840;46.894;15.542;2022-11-20T05:49:52;21.67;;;17.40;;
11568;SDS011;5840;46.894;15.542;2022-11-20T05:52:20;18.40;;;16.13;;
11568;SDS011;5840;46.894;15.542;2022-11-20T05:54:47;18.33;;;15.83;;
11568;SDS011;5840;46.894;15.542;2022-11-20T05:57:14;19.20;;;16.80;;
11568;SDS011;5840;46.894;15.542;2022-11-20T05:59:41;22.47;;;17.70;;
11568;SDS011;5840;46.894;15.542;2022-11-20T06:02:08;18.93;;;16.90;;
11568;SDS011;5840;46.894;15.542;2022-11-20T06:04:35;20.07;;;16.93;;
11568;SDS011;5840;46.894;15.542;2022-11-20T06:07:02;19.43;;;16.90;;
11568;SDS011;5840;46.894;15.542;2022-11-20T06:09:32;21.27;;;17.30;;
11568;SDS011;5840;46.894;15.542;2022-11-20T06:11:59;18.90;;;16.03;;
11568;SDS011;5840;46.894;15.542;2022-11-20T06:14:26;18.33;;;16.23;;
11568;SDS011;5840;46.894;15.542;2022-11-20T06:16:53;17.63;;;15.73;;
11568;SDS011;5840;46.894;15.542;2022-11-20T06:19:19;18.73;;;16.40;;
11568;SDS011;5840;46.894;15.542;2022-11-20T06:21:47;18.20;;;16.13;;
11568;SDS011;5840;46.894;15.542;2022-11-20T06:24:14;18.67;;;16.07;;
11568;SDS011;5840;46.894;15.542;2022-11-20T06:26:43;20.90;;;16.90;;
11568;SDS011;5840;46.894;15.542;2022-11-20T06:29:10;18.87;;;16.20;;
11568;SDS011;5840;46.894;15.542;2022-11-20T06:31:37;18.30;;;15.97;;
11568;SDS011;5840;46.894;15.542;2022-11-20T06:34:04;19.43;;;17.30;;
11568;SDS011;5840;46.894;15.542;2022-11-20T06:36:31;20.17;;;16.50;;
11568;SDS011;5840;46.894;15.542;2022-11-20T06:38:59;16.00;;;13.50;;
11568;SDS011;5840;46.894;15.542;2022-11-20T06:41:26;16.53;;;14.80;;
11568;SDS011;5840;46.894;15.542;2022-11-20T06:43:55;16.80;;;14.67;;
11568;SDS011;5840;46.894;15.542;2022-11-20T06:46:22;15.07;;;13.47;;
11568;SDS011;5840;46.894;15.542;2022-11-20T06:48:49;19.00;;;16.93;;
11568;SDS011;5840;46.894;15.542;2022-11-20T06:51:16;19.73;;;17.63;;
11568;SDS011;5840;46.894;15.542;2022-11-20T06:53:44;18.40;;;16.30;;
11568;SDS011;5840;46.894;15.542;2022-11-20T06:56:11;16.27;;;14.57;;
11568;SDS011;5840;46.894;15.542;2022-11-20T06:58:38;18.67;;;15.53;;
11568;SDS011;5840;46.894;15.542;2022-11-20T07:01:06;16.67;;;14.77;;
11568;SDS011;5840;46.894;15.542;2022-11-20T07:03:36;16.50;;;14.77;;
11568;SDS011;5840;46.894;15.542;2022-11-20T07:06:03;16.87;;;14.13;;
11568;SDS011;5840;46.894;15.542;2022-11-20T07:08:31;15.40;;;13.80;;
11568;SDS011;5840;46.894;15.542;2022-11-20T07:10:59;16.70;;;14.83;;
11568;SDS011;5840;46.894;15.542;2022-11-20T07:13:27;17.53;;;15.10;;
11568;SDS011;5840;46.894;15.542;2022-11-20T07:15:54;16.33;;;14.63;;
11568;SDS011;5840;46.894;15.542;2022-11-20T07:18:26;17.43;;;14.63;;
11568;SDS011;5840;46.894;15.542;2022-11-20T07:20:53;15.97;;;14.27;;
11568;SDS011;5840;46.894;15.542;2022-11-20T07:23:20;16.53;;;14.83;;
11568;SDS011;5840;46.894;15.542;2022-11-20T07:25:47;16.43;;;14.40;;
11568;SDS011;5840;46.894;15.542;2022-11-20T07:28:14;21.77;;;15.80;;
11568;SDS011;5840;46.894;15.542;2022-11-20T07:30:41;18.67;;;16.60;;
11568;SDS011;5840;46.894;15.542;2022-11-20T07:33:07;16.87;;;15.17;;
11568;SDS011;5840;46.894;15.542;2022-11-20T07:35:36;15.87;;;14.20;;
11568;SDS011;5840;46.894;15.542;2022-11-20T07:38:03;15.13;;;13.57;;
11568;SDS011;5840;46.894;15.542;2022-11-20T07:40:30;16.10;;;14.40;;
11568;SDS011;5840;46.894;15.542;2022-11-20T07:42:57;15.57;;;13.87;;
11568;SDS011;5840;46.894;15.542;2022-11-20T07:45:24;17.13;;;14.43;;
11568;SDS011;5840;46.894;15.542;2022-11-20T07:47:51;17.27;;;15.47;;
11568;SDS011;5840;46.894;15.542;2022-11-20T07:50:18;16.70;;;14.90;;
11568;SDS011;5840;46.894;15.542;2022-11-20T07:52:47;16.00;;;13.87;;
11568;SDS011;5840;46.894;15.542;2022-11-20T07:55:14;15.43;;;13.83;;
11568;SDS011;5840;46.894;15.542;2022-11-20T07:57:41;18.33;;;15.47;;
11568;SDS011;5840;46.894;15.542;2022-11-20T08:00:09;15.87;;;13.90;;
11568;SDS011;5840;46.894;15.542;2022-11-20T08:02:37;18.40;;;16.00;;
11568;SDS011;5840;46.894;15.542;2022-11-20T08:05:05;16.40;;;14.77;;
11568;SDS011;5840;46.894;15.542;2022-11-20T08:07:36;15.83;;;14.13;;
11568;SDS011;5840;46.894;15.542;2022-11-20T08:10:06;18.10;;;16.07;;
11568;SDS011;5840;46.894;15.542;2022-11-20T08:12:33;17.70;;;15.43;;
11568;SDS011;5840;46.894;15.542;2022-11-20T08:15:18;17.27;;;15.40;;
11568;SDS011;5840;46.894;15.542;2022-11-20T08:17:45;17.17;;;15.37;;
11568;SDS011;5840;46.894;15.542;2022-11-20T08:20:12;16.13;;;14.50;;
11568;SDS011;5840;46.894;15.542;2022-11-20T08:22:39;15.27;;;13.73;;
11568;SDS011;5840;46.894;15.542;2022-11-20T08:25:07;13.90;;;12.50;;
11568;SDS011;5840;46.894;15.542;2022-11-20T08:27:34;15.73;;;14.13;;
11568;SDS011;5840;46.894;15.542;2022-11-20T08:30:02;16.27;;;14.57;;
11568;SDS011;5840;46.894;15.542;2022-11-20T08:32:29;16.20;;;14.40;;
11568;SDS011;5840;46.894;15.542;2022-11-20T08:34:56;14.97;;;13.37;;
11568;SDS011;5840;46.894;15.542;2022-11-20T08:37:23;16.47;;;14.77;;
11568;SDS011;5840;46.894;15.542;2022-11-20T08:39:50;17.47;;;15.43;;
11568;SDS011;5840;46.894;15.542;2022-11-20T08:42:19;16.77;;;14.83;;
11568;SDS011;5840;46.894;15.542;2022-11-20T08:44:46;17.87;;;15.27;;
11568;SDS011;5840;46.894;15.542;2022-11-20T08:47:13;17.47;;;15.57;;
11568;SDS011;5840;46.894;15.542;2022-11-20T08:49:40;17.40;;;15.60;;
11568;SDS011;5840;46.894;15.542;2022-11-20T08:52:07;17.10;;;15.30;;
11568;SDS011;5840;46.894;15.542;2022-11-20T08:54:34;15.27;;;13.77;;
11568;SDS011;5840;46.894;15.542;2022-11-20T08:57:01;16.13;;;14.53;;
11568;SDS011;5840;46.894;15.542;2022-11-20T08:59:31;16.30;;;14.60;;
11568;SDS011;5840;46.894;15.542;2022-11-20T09:01:57;17.07;;;15.27;;
11568;SDS011;5840;46.894;15.542;2022-11-20T09:04:24;17.10;;;15.40;;
11568;SDS011;5840;46.894;15.542;2022-11-20T09:06:51;16.80;;;15.00;;
11568;SDS011;5840;46.894;15.542;2022-11-20T09:09:18;18.00;;;14.87;;
11568;SDS011;5840;46.894;15.542;2022-11-20T09:11:45;16.73;;;15.03;;
11568;SDS011;5840;46.894;15.542;2022-11-20T09:14:14;16.23;;;14.63;;
11568;SDS011;5840;46.894;15.542;2022-11-20T09:16:44;17.30;;;15.30;;
11568;SDS011;5840;46.894;15.542;2022-11-20T09:19:11;17.83;;;15.93;;
11568;SDS011;5840;46.894;15.542;2022-11-20T09:21:38;17.90;;;15.37;;
11568;SDS011;5840;46.894;15.542;2022-11-20T09:24:05;18.07;;;16.17;;
11568;SDS011;5840;46.894;15.542;2022-11-20T09:26:33;17.03;;;15.23;;
11568;SDS011;5840;46.894;15.542;2022-11-20T09:29:00;17.87;;;16.03;;
11568;SDS011;5840;46.894;15.542;2022-11-20T09:31:27;17.40;;;15.57;;
11568;SDS011;5840;46.894;15.542;2022-11-20T09:33:55;17.40;;;15.47;;
11568;SDS011;5840;46.894;15.542;2022-11-20T09:36:22;18.03;;;16.13;;
11568;SDS011;5840;46.894;15.542;2022-11-20T09:38:49;17.63;;;15.83;;
11568;SDS011;5840;46.894;15.542;2022-11-20T09:41:21;16.33;;;14.67;;
11568;SDS011;5840;46.894;15.542;2022-11-20T09:44:20;16.60;;;14.90;;
11568;SDS011;5840;46.894;15.542;2022-11-20T09:47:06;17.33;;;15.50;;
11568;SDS011;5840;46.894;15.542;2022-11-20T09:49:43;16.97;;;15.30;;
11568;SDS011;5840;46.894;15.542;2022-11-20T09:52:25;16.73;;;15.03;;
11568;SDS011;5840;46.894;15.542;2022-11-20T09:55:02;17.53;;;15.70;;
11568;SDS011;5840;46.894;15.542;2022-11-20T09:57:35;16.83;;;15.10;;
11568;SDS011;5840;46.894;15.542;2022-11-20T10:00:05;17.83;;;15.63;;
11568;SDS011;5840;46.894;15.542;2022-11-20T10:02:37;17.83;;;16.07;;
11568;SDS011;5840;46.894;15.542;2022-11-20T10:05:10;17.93;;;16.23;;
11568;SDS011;5840;46.894;15.542;2022-11-20T10:07:43;18.57;;;16.77;;
11568;SDS011;5840;46.894;15.542;2022-11-20T10:10:15;18.03;;;16.17;;
11568;SDS011;5840;46.894;15.542;2022-11-20T10:12:48;19.20;;;17.20;;
11568;SDS011;5840;46.894;15.542;2022-11-20T10:15:27;18.93;;;16.93;;
11568;SDS011;5840;46.894;15.542;2022-11-20T10:18:11;19.93;;;17.83;;
11568;SDS011;5840;46.894;15.542;2022-11-20T10:20:53;18.20;;;16.50;;
11568;SDS011;5840;46.894;15.542;2022-11-20T10:23:31;18.10;;;16.33;;
11568;SDS011;5840;46.894;15.542;2022-11-20T10:26:16;17.77;;;16.00;;
11568;SDS011;5840;46.894;15.542;2022-11-20T10:28:57;17.97;;;16.27;;
11568;SDS011;5840;46.894;15.542;2022-11-20T10:31:31;18.30;;;16.40;;
11568;SDS011;5840;46.894;15.542;2022-11-20T10:34:01;18.47;;;16.57;;
11568;SDS011;5840;46.894;15.542;2022-11-20T10:36:36;18.33;;;16.53;;
11568;SDS011;5840;46.894;15.542;2022-11-20T10:39:14;18.80;;;16.77;;
11568;SDS011;5840;46.894;15.542;2022-11-20T10:41:44;17.83;;;16.00;;
11568;SDS011;5840;46.894;15.542;2022-11-20T10:44:17;18.57;;;16.70;;
11568;SDS011;5840;46.894;15.542;2022-11-20T10:47:01;16.30;;;14.70;;
11568;SDS011;5840;46.894;15.542;2022-11-20T10:49:30;16.23;;;14.67;;
11568;SDS011;5840;46.894;15.542;2022-11-20T10:52:02;17.77;;;15.50;;
11568;SDS011;5840;46.894;15.542;2022-11-20T10:54:37;15.57;;;14.03;;
11568;SDS011;5840;46.894;15.542;2022-11-20T10:57:14;16.13;;;14.53;;
11568;SDS011;5840;46.894;15.542;2022-11-20T10:59:53;15.63;;;14.13;;
11568;SDS011;5840;46.894;15.542;2022-11-20T11:02:39;16.37;;;14.83;;
11568;SDS011;5840;46.894;15.542;2022-11-20T11:05:15;16.47;;;14.93;;
11568;SDS011;5840;46.894;15.542;2022-11-20T11:07:50;14.50;;;13.20;;
11568;SDS011;5840;46.894;15.542;2022-11-20T11:10:22;14.00;;;12.70;;
11568;SDS011;5840;46.894;15.542;2022-11-20T11:12:54;12.73;;;11.53;;
11568;SDS011;5840;46.894;15.542;2022-11-20T11:15:25;14.83;;;13.33;;
11568;SDS011;5840;46.894;15.542;2022-11-20T11:17:54;14.67;;;13.27;;
11568;SDS011;5840;46.894;15.542;2022-11-20T11:20:21;14.43;;;13.03;;
11568;SDS011;5840;46.894;15.542;2022-11-20T11:22:51;13.63;;;12.33;;
11568;SDS011;5840;46.894;15.542;2022-11-20T11:25:21;13.73;;;12.53;;
11568;SDS011;5840;46.894;15.542;2022-11-20T11:27:51;13.23;;;12.03;;
11568;SDS011;5840;46.894;15.542;2022-11-20T11:30:20;13.07;;;11.87;;
11568;SDS011;5840;46.894;15.542;2022-11-20T11:32:47;13.03;;;11.90;;
11568;SDS011;5840;46.894;15.542;2022-11-20T11:35:19;11.90;;;10.90;;
11568;SDS011;5840;46.894;15.542;2022-11-20T11:37:52;13.13;;;11.93;;
11568;SDS011;5840;46.894;15.542;2022-11-20T11:40:21;14.03;;;12.63;;
11568;SDS011;5840;46.894;15.542;2022-11-20T11:42:56;13.10;;;11.87;;
11568;SDS011;5840;46.894;15.542;2022-11-20T11:45:25;12.47;;;11.27;;
11568;SDS011;5840;46.894;15.542;2022-11-20T11:47:52;13.00;;;11.90;;
11568;SDS011;5840;46.894;15.542;2022-11-20T11:50:22;12.47;;;11.37;;
11568;SDS011;5840;46.894;15.542;2022-11-20T11:52:53;12.07;;;10.97;;
11568;SDS011;5840;46.894;15.542;2022-11-20T11:55:29;11.30;;;10.30;;
11568;SDS011;5840;46.894;15.542;2022-11-20T11:58:04;11.30;;;10.30;;
11568;SDS011;5840;46.894;15.542;2022-11-20T12:00:49;11.30;;;10.30;;
11568;SDS011;5840;46.894;15.542;2022-11-20T12:03:24;12.83;;;11.73;;
11568;SDS011;5840;46.894;15.542;2022-11-20T12:05:57;12.73;;;11.63;;
11568;SDS011;5840;46.894;15.542;2022-11-20T12:08:30;11.57;;;10.57;;
11568;SDS011;5840;46.894;15.542;2022-11-20T12:11:04;12.70;;;11.53;;
11568;SDS011;5840;46.894;15.542;2022-11-20T12:13:44;12.53;;;11.43;;
11568;SDS011;5840;46.894;15.542;2022-11-20T12:16:17;13.70;;;12.40;;
11568;SDS011;5840;46.894;15.542;2022-11-20T12:18:48;12.63;;;11.53;;
11568;SDS011;5840;46.894;15.542;2022-11-20T12:21:23;12.67;;;11.57;;
11568;SDS011;5840;46.894;15.542;2022-11-20T12:26:59;11.93;;;10.87;;
11568;SDS011;5840;46.894;15.542;2022-11-20T12:29:37;11.57;;;10.57;;
11568;SDS011;5840;46.894;15.542;2022-11-20T12:32:26;11.70;;;10.60;;
11568;SDS011;5840;46.894;15.542;2022-11-20T12:35:10;11.07;;;10.13;;
11568;SDS011;5840;46.894;15.542;2022-11-20T12:37:48;11.47;;;10.47;;
11568;SDS011;5840;46.894;15.542;2022-11-20T12:40:31;11.87;;;10.87;;
11568;SDS011;5840;46.894;15.542;2022-11-20T12:43:09;11.90;;;10.80;;
11568;SDS011;5840;46.894;15.542;2022-11-20T12:51:58;11.07;;;10.17;;
11568;SDS011;5840;46.894;15.542;2022-11-20T12:54:57;10.10;;;9.30;;
11568;SDS011;5840;46.894;15.542;2022-11-20T12:57:44;11.43;;;10.43;;
11568;SDS011;5840;46.894;15.542;2022-11-20T13:00:17;11.10;;;10.20;;
11568;SDS011;5840;46.894;15.542;2022-11-20T13:02:58;11.00;;;10.07;;
11568;SDS011;5840;46.894;15.542;2022-11-20T13:05:45;9.97;;;9.17;;
11568;SDS011;5840;46.894;15.542;2022-11-20T13:08:22;10.50;;;9.60;;
11568;SDS011;5840;46.894;15.542;2022-11-20T13:10:51;10.53;;;9.70;;
11568;SDS011;5840;46.894;15.542;2022-11-20T13:13:29;10.37;;;9.47;;
11568;SDS011;5840;46.894;15.542;2022-11-20T13:16:02;11.03;;;9.90;;
11568;SDS011;5840;46.894;15.542;2022-11-20T13:18:35;10.93;;;10.03;;
11568;SDS011;5840;46.894;15.542;2022-11-20T13:21:16;11.27;;;10.27;;
11568;SDS011;5840;46.894;15.542;2022-11-20T13:23:45;10.97;;;10.07;;
11568;SDS011;5840;46.894;15.542;2022-11-20T13:26:16;9.97;;;9.17;;
11568;SDS011;5840;46.894;15.542;2022-11-20T13:28:48;10.90;;;10.00;;
11568;SDS011;5840;46.894;15.542;2022-11-20T13:31:31;11.00;;;10.00;;
11568;SDS011;5840;46.894;15.542;2022-11-20T13:34:01;11.17;;;10.27;;
11568;SDS011;5840;46.894;15.542;2022-11-20T13:36:30;10.80;;;9.80;;
11568;SDS011;5840;46.894;15.542;2022-11-20T13:39:00;10.63;;;9.73;;
11568;SDS011;5840;46.894;15.542;2022-11-20T13:41:29;10.83;;;9.90;;
11568;SDS011;5840;46.894;15.542;2022-11-20T13:44:12;10.13;;;9.33;;
11568;SDS011;5840;46.894;15.542;2022-11-20T13:46:48;11.03;;;10.13;;
11568;SDS011;5840;46.894;15.542;2022-11-20T13:49:17;10.80;;;9.80;;
11568;SDS011;5840;46.894;15.542;2022-11-20T13:51:51;10.00;;;9.20;;
11568;SDS011;5840;46.894;15.542;2022-11-20T13:54:46;10.67;;;9.67;;
11568;SDS011;5840;46.894;15.542;2022-11-20T13:57:37;10.20;;;9.30;;
11568;SDS011;5840;46.894;15.542;2022-11-20T14:00:32;9.37;;;8.57;;
11568;SDS011;5840;46.894;15.542;2022-11-20T14:03:07;9.50;;;8.70;;
11568;SDS011;5840;46.894;15.542;2022-11-20T14:05:40;10.53;;;9.50;;
11568;SDS011;5840;46.894;15.542;2022-11-20T14:08:19;10.47;;;9.57;;
11568;SDS011;5840;46.894;15.542;2022-11-20T14:11:06;9.03;;;8.27;;
11568;SDS011;5840;46.894;15.542;2022-11-20T14:13:51;10.00;;;9.10;;
11568;SDS011;5840;46.894;15.542;2022-11-20T14:16:28;10.00;;;9.20;;
11568;SDS011;5840;46.894;15.542;2022-11-20T14:18:57;9.77;;;8.97;;
11568;SDS011;5840;46.894;15.542;2022-11-20T14:21:44;10.50;;;9.60;;
11568;SDS011;5840;46.894;15.542;2022-11-20T14:24:12;10.77;;;9.87;;
11568;SDS011;5840;46.894;15.542;2022-11-20T14:26:45;11.13;;;10.23;;
11568;SDS011;5840;46.894;15.542;2022-11-20T14:29:13;9.93;;;9.13;;
11568;SDS011;5840;46.894;15.542;2022-11-20T14:31:45;10.43;;;9.63;;
11568;SDS011;5840;46.894;15.542;2022-11-20T14:34:14;10.90;;;10.00;;
11568;SDS011;5840;46.894;15.542;2022-11-20T14:36:45;11.23;;;10.23;;
11568;SDS011;5840;46.894;15.542;2022-11-20T14:39:19;10.70;;;9.80;;
11568;SDS011;5840;46.894;15.542;2022-11-20T14:41:50;10.13;;;9.33;;
11568;SDS011;5840;46.894;15.542;2022-11-20T14:44:18;10.13;;;9.33;;
11568;SDS011;5840;46.894;15.542;2022-11-20T14:46:57;11.37;;;10.47;;
11568;SDS011;5840;46.894;15.542;2022-11-20T14:49:26;11.03;;;10.13;;
11568;SDS011;5840;46.894;15.542;2022-11-20T14:51:59;12.23;;;11.20;;
11568;SDS011;5840;46.894;15.542;2022-11-20T14:54:29;11.40;;;10.40;;
11568;SDS011;5840;46.894;15.542;2022-11-20T14:57:00;11.17;;;10.27;;